Time;durP1;ratioP1;P1;durP2;ratioP2;P2;SDS_P1;SDS_P2;PMS_P1;PMS_P2;Temp;Humidity;BMP_temperature;BMP_pressure;BME280_temperature;BME280_humidity;BME280_pressure;Samples;Min_cycle;Max_cycle;Signal;HPM_P1;HPM_P2
2021/05/04 00:01:42;;;;;;;3.20;2.70;;;;;;;10.37;39.21;98334.66;3549837;40;20053;-61
2021/05/04 00:04:08;;;;;;;3.63;3.05;;;;;;;10.35;39.17;98336.69;3549662;40;20053;-62
2021/05/04 00:06:35;;;;;;;3.65;3.20;;;;;;;10.34;39.32;98329.78;3549527;40;20319;-61
2021/05/04 00:09:03;;;;;;;5.63;2.95;;;;;;;10.33;39.45;98316.78;3540099;40;20053;-62
2021/05/04 00:11:29;;;;;;;6.78;3.28;;;;;;;10.35;39.28;98320.81;3540473;40;20042;-61
2021/05/04 00:13:56;;;;;;;3.67;2.92;;;;;;;10.33;39.53;98312.31;3551983;40;20353;-61
2021/05/04 00:16:24;;;;;;;7.65;3.17;;;;;;;10.32;39.64;98313.28;3551206;40;20395;-61
2021/05/04 00:18:51;;;;;;;4.78;3.65;;;;;;;10.35;39.64;98304.97;3551114;40;20058;-62
2021/05/04 00:21:18;;;;;;;3.53;2.72;;;;;;;10.34;39.65;98287.50;3551506;40;20141;-62
2021/05/04 00:23:45;;;;;;;4.07;2.97;;;;;;;10.35;39.72;98283.84;3542024;40;20415;-62
2021/05/04 00:26:12;;;;;;;3.30;3.00;;;;;;;10.35;39.70;98278.53;3550186;40;20027;-62
2021/05/04 00:28:39;;;;;;;3.90;3.28;;;;;;;10.37;39.83;98263.31;3549822;40;20046;-62
2021/05/04 00:31:06;;;;;;;3.90;3.03;;;;;;;10.38;39.73;98261.47;3549725;40;20037;-62
2021/05/04 00:33:32;;;;;;;3.55;3.25;;;;;;;10.37;39.86;98260.69;3549304;40;20054;-62
2021/05/04 00:36:00;;;;;;;3.28;2.97;;;;;;;10.40;40.00;98251.50;3549226;40;20035;-62
2021/05/04 00:38:27;;;;;;;3.70;3.22;;;;;;;10.39;39.62;98240.13;3549112;40;20046;-62
2021/05/04 00:40:54;;;;;;;4.05;3.22;;;;;;;10.39;39.98;98242.78;3549369;40;20053;-62
2021/05/04 00:43:25;;;;;;;3.50;3.15;;;;;;;10.44;39.90;98234.22;3549540;40;20050;-62
2021/05/04 00:45:52;;;;;;;3.05;2.72;;;;;;;10.41;39.98;98235.47;3549568;40;20057;-62
2021/05/04 00:48:19;;;;;;;4.25;2.72;;;;;;;10.39;39.77;98232.22;3548403;40;20080;-63
2021/05/04 00:50:46;;;;;;;4.03;2.63;;;;;;;10.39;39.97;98240.13;3549365;40;20056;-62
2021/05/04 00:53:14;;;;;;;5.05;3.38;;;;;;;10.41;40.04;98227.53;3540398;40;20032;-62
2021/05/04 00:55:41;;;;;;;3.47;2.70;;;;;;;10.42;40.05;98228.34;3549317;40;20030;-62
2021/05/04 00:58:09;;;;;;;3.55;3.08;;;;;;;10.39;40.30;98226.13;3549270;40;20054;-61
2021/05/04 01:00:36;;;;;;;3.20;2.90;;;;;;;10.37;40.25;98217.59;3549454;40;20332;-62
2021/05/04 01:03:04;;;;;;;3.65;2.53;;;;;;;10.37;40.29;98218.41;3549282;40;20061;-61
2021/05/04 01:05:31;;;;;;;3.47;2.85;;;;;;;10.39;40.44;98215.53;3549394;40;20058;-62
2021/05/04 01:07:57;;;;;;;4.13;3.00;;;;;;;10.38;40.29;98212.09;3550451;40;20396;-61
2021/05/04 01:10:26;;;;;;;2.80;2.53;;;;;;;10.35;40.64;98204.56;3554540;40;20107;-63
2021/05/04 01:12:53;;;;;;;5.35;2.85;;;;;;;10.34;40.57;98197.66;3550908;40;20066;-62
2021/05/04 01:15:21;;;;;;;3.47;3.00;;;;;;;10.34;40.85;98202.94;3550083;40;20128;-63
2021/05/04 01:17:47;;;;;;;4.57;2.88;;;;;;;10.34;40.78;98192.38;3550111;40;20050;-63
2021/05/04 01:20:15;;;;;;;3.20;2.88;;;;;;;10.34;41.02;98188.94;3549423;40;20058;-62
2021/05/04 01:22:42;;;;;;;3.80;2.70;;;;;;;10.34;41.02;98183.66;3550021;40;20061;-62
2021/05/04 01:25:10;;;;;;;3.38;3.08;;;;;;;10.28;41.11;98192.38;3549460;40;20057;-62
2021/05/04 01:27:37;;;;;;;3.17;2.83;;;;;;;10.30;41.18;98174.50;3549343;40;20119;-62
2021/05/04 01:30:05;;;;;;;3.53;2.70;;;;;;;10.32;41.32;98178.56;3549260;40;20042;-62
2021/05/04 01:32:32;;;;;;;3.45;3.03;;;;;;;10.31;41.56;98168.22;3540567;40;20046;-63
2021/05/04 01:34:59;;;;;;;3.65;3.22;;;;;;;10.35;41.45;98164.94;3549433;40;20058;-62
2021/05/04 01:37:26;;;;;;;3.58;2.90;;;;;;;10.33;41.67;98156.44;3548860;40;20054;-62
2021/05/04 01:39:54;;;;;;;4.85;2.88;;;;;;;10.33;41.66;98148.50;3549134;40;20057;-62
2021/05/04 01:42:22;;;;;;;3.55;2.95;;;;;;;10.37;41.72;98151.53;3549151;40;20316;-62
2021/05/04 01:44:50;;;;;;;3.78;3.10;;;;;;;10.37;41.83;98138.34;3548961;40;20050;-62
2021/05/04 01:47:17;;;;;;;4.28;3.38;;;;;;;10.39;41.94;98137.09;3548527;40;20124;-62
2021/05/04 01:49:45;;;;;;;6.07;2.97;;;;;;;10.39;41.91;98137.09;3548904;40;20082;-62
2021/05/04 01:52:13;;;;;;;3.55;2.88;;;;;;;10.39;42.16;98129.16;3549306;40;20042;-62
2021/05/04 01:54:40;;;;;;;8.65;3.20;;;;;;;10.43;42.09;98124.28;3549396;40;20054;-62
2021/05/04 01:57:07;;;;;;;4.13;2.75;;;;;;;10.40;42.34;98117.56;3550238;40;20411;-62
2021/05/04 01:59:35;;;;;;;6.07;2.97;;;;;;;10.43;42.30;98120.81;3555003;40;20057;-62
2021/05/04 02:02:02;;;;;;;5.72;3.42;;;;;;;10.40;42.47;98122.84;3555293;40;20038;-62
2021/05/04 02:04:31;;;;;;;4.95;2.95;;;;;;;10.44;42.49;98109.22;3553499;40;20090;-62
2021/05/04 02:06:59;;;;;;;3.70;3.30;;;;;;;10.45;42.52;98108.19;3548645;40;20058;-62
2021/05/04 02:09:26;;;;;;;4.22;3.42;;;;;;;10.51;42.71;98099.44;3548869;40;20066;-62
2021/05/04 02:11:53;;;;;;;6.75;4.25;;;;;;;10.51;42.70;98097.63;3548938;40;20034;-62
2021/05/04 02:14:21;;;;;;;3.72;3.05;;;;;;;10.51;42.79;98094.97;3548819;40;20027;-62
2021/05/04 02:16:47;;;;;;;4.90;3.50;;;;;;;10.55;42.72;98082.97;3570152;23;20067;-66
2021/05/04 02:19:14;;;;;;;5.15;3.42;;;;;;;10.52;42.76;98077.28;3539022;40;20047;-65
2021/05/04 02:21:41;;;;;;;6.35;3.53;;;;;;;10.54;43.01;98069.97;3539207;40;20055;-63
2021/05/04 02:24:08;;;;;;;7.43;3.53;;;;;;;10.57;43.06;98059.81;3539524;40;20054;-64
2021/05/04 02:26:35;;;;;;;8.85;3.90;;;;;;;10.56;43.20;98050.22;3539327;40;20316;-64
2021/05/04 02:29:03;;;;;;;7.68;4.13;;;;;;;10.60;43.09;98062.00;3529857;40;20047;-64
2021/05/04 02:31:30;;;;;;;4.75;3.67;;;;;;;10.60;43.29;98061.19;3539176;40;20051;-64
2021/05/04 02:33:57;;;;;;;11.38;4.15;;;;;;;10.60;43.34;98062.00;3539168;40;20054;-64
2021/05/04 02:36:24;;;;;;;5.80;4.18;;;;;;;10.64;43.31;98055.28;3538972;40;20046;-63
2021/05/04 02:38:51;;;;;;;6.60;4.55;;;;;;;10.65;43.42;98046.34;3538589;40;20465;-64
2021/05/04 02:41:18;;;;;;;6.82;3.83;;;;;;;10.65;43.69;98034.94;3538864;40;20042;-64
2021/05/04 02:43:44;;;;;;;5.05;4.00;;;;;;;10.72;43.32;98035.72;3538946;40;20324;-64
2021/05/04 02:46:12;;;;;;;6.18;3.95;;;;;;;10.73;43.55;98026.75;3539051;40;20419;-64
2021/05/04 02:48:42;;;;;;;5.18;3.78;;;;;;;10.75;43.55;98002.78;3538676;40;20055;-64
2021/05/04 02:51:09;;;;;;;9.88;4.10;;;;;;;10.75;43.32;98008.84;3538947;40;20047;-63
2021/05/04 02:53:37;;;;;;;4.68;3.90;;;;;;;10.78;43.45;98005.00;3538791;40;20058;-65
2021/05/04 02:56:05;;;;;;;5.70;4.00;;;;;;;10.79;43.36;97991.53;3538610;40;20070;-65
2021/05/04 02:58:33;;;;;;;6.68;4.50;;;;;;;10.83;43.30;98005.97;3538748;40;20676;-65
2021/05/04 03:01:00;;;;;;;6.63;4.20;;;;;;;10.85;43.41;97982.75;3539018;40;20397;-65
2021/05/04 03:03:27;;;;;;;7.05;4.40;;;;;;;10.87;43.22;97988.66;3529741;40;20051;-64
2021/05/04 03:05:55;;;;;;;5.35;4.10;;;;;;;10.89;43.25;97975.19;3538885;40;20087;-64
2021/05/04 03:08:22;;;;;;;6.82;4.30;;;;;;;10.88;43.13;97984.97;3538718;40;20428;-65
2021/05/04 03:10:49;;;;;;;5.28;4.07;;;;;;;10.90;43.05;97980.28;3541023;40;20050;-64
2021/05/04 03:13:22;;;;;;;10.90;4.25;;;;;;;10.96;43.09;97977.81;3544082;40;20042;-64
2021/05/04 03:15:49;;;;;;;7.07;3.88;;;;;;;10.97;42.74;97960.91;3543070;40;20079;-65
2021/05/04 03:18:16;;;;;;;7.28;4.32;;;;;;;10.98;42.64;97957.22;3530910;40;20408;-65
2021/05/04 03:20:43;;;;;;;4.60;3.63;;;;;;;10.99;42.55;97943.00;3540316;40;20101;-65
2021/05/04 03:23:12;;;;;;;5.43;4.15;;;;;;;11.01;42.50;97940.94;3540040;40;20062;-65
2021/05/04 03:25:40;;;;;;;5.95;3.97;;;;;;;11.00;42.53;97926.91;3540145;40;20062;-65
2021/05/04 03:28:07;;;;;;;5.65;3.78;;;;;;;11.01;42.30;97943.59;3530616;40;20059;-65
2021/05/04 03:30:34;;;;;;;4.55;3.40;;;;;;;11.02;42.48;97945.19;3540726;40;20053;-65
2021/05/04 03:33:00;;;;;;;3.88;3.17;;;;;;;11.03;41.98;97937.06;3540048;40;20046;-67
2021/05/04 03:35:28;;;;;;;6.85;3.95;;;;;;;11.02;41.96;97951.31;3540254;40;20054;-65
2021/05/04 03:37:55;;;;;;;7.18;4.10;;;;;;;11.07;41.64;97927.66;3539796;40;20127;-65
2021/05/04 03:40:23;;;;;;;6.20;3.35;;;;;;;11.07;41.63;97922.38;3540686;40;20034;-65
2021/05/04 03:42:49;;;;;;;7.00;3.95;;;;;;;11.06;41.57;97930.50;3540858;40;20054;-65
2021/05/04 03:45:17;;;;;;;4.50;3.92;;;;;;;11.11;41.44;97913.00;3540750;40;20058;-64
2021/05/04 03:47:45;;;;;;;6.68;3.30;;;;;;;11.12;41.51;97919.88;3540856;40;20043;-64
2021/05/04 03:50:14;;;;;;;7.18;3.40;;;;;;;11.13;41.20;97910.91;3543010;40;20053;-65
2021/05/04 03:52:42;;;;;;;6.75;3.72;;;;;;;11.12;41.53;97914.59;3542527;40;20050;-64
2021/05/04 03:55:10;;;;;;;3.80;3.00;;;;;;;11.12;41.00;97914.59;3540990;40;20054;-65
2021/05/04 03:57:38;;;;;;;5.40;3.45;;;;;;;11.12;40.97;97906.66;3531802;40;20078;-64
2021/05/04 04:00:07;;;;;;;4.35;3.47;;;;;;;11.12;41.23;97884.69;3542687;40;20046;-65
2021/05/04 04:02:34;;;;;;;6.90;3.35;;;;;;;11.11;41.32;97898.97;3543929;40;20132;-64
2021/05/04 04:05:00;;;;;;;4.47;3.13;;;;;;;11.12;40.93;97890.00;3534824;40;20042;-65
2021/05/04 04:07:30;;;;;;;5.88;3.25;;;;;;;11.14;40.89;97878.19;3543868;40;20034;-65
2021/05/04 04:09:57;;;;;;;4.40;2.92;;;;;;;11.16;40.81;97875.28;3543257;40;20431;-65
2021/05/04 04:12:24;;;;;;;4.13;3.05;;;;;;;11.15;40.67;97908.06;3534573;40;20446;-65
2021/05/04 04:14:53;;;;;;;4.38;3.05;;;;;;;11.18;40.78;97870.59;3543633;40;20054;-65
2021/05/04 04:17:20;;;;;;;7.95;3.80;;;;;;;11.23;40.36;97873.41;3542747;40;20047;-65
2021/05/04 04:19:48;;;;;;;5.45;3.00;;;;;;;11.24;40.50;97880.31;3543593;40;20136;-64
2021/05/04 04:22:15;;;;;;;4.63;2.97;;;;;;;11.21;40.63;97869.34;3543381;40;20050;-64
2021/05/04 04:24:43;;;;;;;4.68;3.30;;;;;;;11.21;40.53;97872.78;3543631;40;20037;-64
2021/05/04 04:27:10;;;;;;;7.75;3.15;;;;;;;11.27;40.34;97866.66;3543016;40;20047;-64
2021/05/04 04:29:38;;;;;;;3.63;2.53;;;;;;;11.27;40.39;97857.91;3535025;40;20128;-63
2021/05/04 04:32:06;;;;;;;5.90;3.20;;;;;;;11.31;40.26;97864.38;3543921;40;20046;-64
2021/05/04 04:34:33;;;;;;;7.57;3.78;;;;;;;11.31;40.26;97869.66;3543434;40;20050;-65
2021/05/04 04:37:00;;;;;;;6.57;3.33;;;;;;;11.34;40.30;97863.91;3535824;40;20046;-64
2021/05/04 04:39:27;;;;;;;3.83;2.92;;;;;;;11.33;40.38;97852.53;3545201;40;20079;-64
2021/05/04 04:41:53;;;;;;;6.53;3.15;;;;;;;11.34;40.34;97880.59;3543584;40;20055;-63
2021/05/04 04:44:20;;;;;;;4.45;2.47;;;;;;;11.36;39.96;97872.44;3546495;40;20046;-66
2021/05/04 04:46:48;;;;;;;5.85;3.08;;;;;;;11.35;40.25;97868.19;3535151;40;20058;-63
2021/05/04 04:49:16;;;;;;;5.57;2.60;;;;;;;11.39;40.19;97877.31;3544744;40;20027;-65
2021/05/04 04:51:44;;;;;;;4.28;2.75;;;;;;;11.41;39.90;97859.38;3544544;40;20027;-64
2021/05/04 04:54:11;;;;;;;5.00;2.58;;;;;;;11.40;40.06;97863.84;3544570;40;20315;-65
2021/05/04 04:56:39;;;;;;;4.70;3.10;;;;;;;11.44;39.88;97876.66;3534613;40;20046;-64
2021/05/04 04:59:06;;;;;;;3.95;2.78;;;;;;;11.45;40.11;97857.88;3543072;40;20327;-64
2021/05/04 05:01:33;;;;;;;3.10;2.45;;;;;;;11.47;39.93;97871.72;3543102;40;20046;-65
2021/05/04 05:04:02;;;;;;;5.97;2.58;;;;;;;11.49;40.02;97866.19;3542281;40;20058;-63
2021/05/04 05:06:30;;;;;;;5.68;2.47;;;;;;;11.50;39.61;97859.88;3546041;40;20043;-65
2021/05/04 05:08:57;;;;;;;4.38;2.90;;;;;;;11.50;39.52;97868.63;3544822;40;20472;-64
2021/05/04 05:11:23;;;;;;;3.85;2.10;;;;;;;11.54;39.35;97861.84;3544226;40;20023;-65
2021/05/04 05:13:50;;;;;;;5.00;2.60;;;;;;;11.53;39.13;97870.81;3543246;40;20063;-64
2021/05/04 05:16:19;;;;;;;5.07;2.10;;;;;;;11.55;38.91;97878.53;3540284;40;20042;-64
2021/05/04 05:18:51;;;;;;;2.90;2.53;;;;;;;11.61;39.15;97846.69;3548951;40;20046;-64
2021/05/04 05:21:19;;;;;;;2.35;2.10;;;;;;;11.63;38.94;97881.72;3547521;40;20035;-64
2021/05/04 05:23:47;;;;;;;3.33;2.30;;;;;;;11.65;38.96;97862.97;3546410;40;20055;-65
2021/05/04 05:26:15;;;;;;;3.63;1.95;;;;;;;11.71;38.66;97867.34;3547009;40;20031;-63
2021/05/04 05:28:42;;;;;;;2.45;2.10;;;;;;;11.75;38.87;97867.72;3546259;40;20035;-66
2021/05/04 05:31:09;;;;;;;2.83;2.45;;;;;;;11.81;38.65;97848.31;3543601;40;20050;-64
2021/05/04 05:33:36;;;;;;;5.75;2.33;;;;;;;11.83;38.22;97859.50;3541832;40;20066;-65
2021/05/04 05:36:06;;;;;;;3.35;2.17;;;;;;;11.83;38.36;97856.84;3532991;40;20043;-65
2021/05/04 05:38:36;;;;;;;6.68;2.30;;;;;;;11.79;38.21;97853.00;3534005;40;20058;-62
2021/05/04 05:41:04;;;;;;;4.72;1.80;;;;;;;11.84;38.08;97848.69;3544199;40;20137;-64
2021/05/04 05:43:32;;;;;;;2.63;1.83;;;;;;;11.91;38.34;97843.28;3542412;40;20050;-64
2021/05/04 05:45:59;;;;;;;7.13;1.88;;;;;;;11.94;38.00;97831.47;3543251;40;20046;-64
2021/05/04 05:48:26;;;;;;;2.58;1.88;;;;;;;11.96;37.93;97845.28;3543267;40;20112;-62
2021/05/04 05:50:53;;;;;;;5.00;2.10;;;;;;;12.02;37.48;97833.78;3543050;40;20046;-63
2021/05/04 05:53:21;;;;;;;2.10;1.90;;;;;;;12.07;37.55;97820.66;3533593;40;20062;-66
2021/05/04 05:55:48;;;;;;;2.20;2.00;;;;;;;12.13;37.38;97833.03;3544022;40;20051;-64
2021/05/04 05:58:16;;;;;;;4.82;2.03;;;;;;;12.15;37.43;97836.25;3543946;40;20050;-63
2021/05/04 06:00:43;;;;;;;3.38;1.80;;;;;;;12.15;37.12;97842.34;3536646;40;20050;-63
2021/05/04 06:03:10;;;;;;;2.20;2.00;;;;;;;12.24;37.14;97810.22;3544733;40;20057;-64
2021/05/04 06:05:37;;;;;;;4.15;1.80;;;;;;;12.25;36.79;97831.22;3544961;40;20057;-64
2021/05/04 06:08:05;;;;;;;2.97;2.05;;;;;;;12.26;36.72;97827.53;3541025;40;20055;-64
2021/05/04 06:10:32;;;;;;;2.25;1.92;;;;;;;12.31;37.10;97835.59;3541207;40;20086;-65
2021/05/04 06:13:00;;;;;;;2.55;2.00;;;;;;;12.43;37.04;97848.06;3532041;40;20335;-64
2021/05/04 06:15:28;;;;;;;4.10;2.10;;;;;;;12.50;36.54;97854.91;3540423;40;20148;-64
2021/05/04 06:17:56;;;;;;;4.07;1.80;;;;;;;12.49;36.60;97845.31;3540614;40;20043;-64
2021/05/04 06:20:23;;;;;;;3.05;1.90;;;;;;;12.58;36.67;97836.00;3540734;40;20325;-65
2021/05/04 06:22:50;;;;;;;5.20;2.03;;;;;;;12.58;36.38;97856.41;3541309;40;20061;-64
2021/05/04 06:25:17;;;;;;;4.15;1.63;;;;;;;12.50;36.06;97848.78;3543712;40;20050;-64
2021/05/04 06:27:44;;;;;;;2.78;1.67;;;;;;;12.59;36.46;97852.72;3543343;40;20031;-65
2021/05/04 06:30:13;;;;;;;2.63;1.70;;;;;;;12.60;36.42;97843.72;3542490;40;20368;-64
2021/05/04 06:32:41;;;;;;;1.70;1.60;;;;;;;12.60;36.20;97854.31;3543127;40;20046;-63
2021/05/04 06:35:09;;;;;;;3.80;1.77;;;;;;;12.73;36.43;97854.09;3544940;40;20049;-64
2021/05/04 06:37:36;;;;;;;3.50;1.88;;;;;;;12.81;36.33;97858.25;3543655;40;20089;-64
2021/05/04 06:40:04;;;;;;;1.70;1.60;;;;;;;12.87;36.50;97860.81;3545345;40;20054;-63
2021/05/04 06:42:31;;;;;;;2.65;1.77;;;;;;;12.89;35.88;97847.31;3545699;40;20057;-64
2021/05/04 06:44:58;;;;;;;6.10;1.80;;;;;;;12.82;35.68;97860.69;3536640;40;20046;-63
2021/05/04 06:47:25;;;;;;;2.90;1.80;;;;;;;12.77;35.55;97849.16;3537639;40;20054;-63
2021/05/04 06:49:53;;;;;;;3.17;1.77;;;;;;;12.71;35.96;97877.41;3548446;40;20058;-63
2021/05/04 06:52:19;;;;;;;2.10;1.90;;;;;;;12.67;36.02;97867.47;3536537;40;20055;-63
2021/05/04 06:54:46;;;;;;;2.22;1.60;;;;;;;12.66;36.71;97860.56;3543683;40;20211;-63
2021/05/04 06:57:13;;;;;;;2.28;1.98;;;;;;;12.67;37.02;97860.34;3542992;40;20091;-63
2021/05/04 06:59:41;;;;;;;3.10;1.90;;;;;;;12.49;38.39;97882.44;3542717;40;20364;-64
2021/05/04 07:02:08;;;;;;;4.38;1.80;;;;;;;12.38;39.35;97860.16;3542388;40;20114;-63
2021/05/04 07:04:35;;;;;;;4.22;2.13;;;;;;;12.28;40.11;97877.63;3542386;40;20050;-65
2021/05/04 07:07:03;;;;;;;4.82;1.70;;;;;;;12.19;40.19;97879.81;3541803;40;20077;-64
2021/05/04 07:09:29;;;;;;;2.38;1.98;;;;;;;12.28;40.64;97865.19;3542289;40;20053;-64
2021/05/04 07:11:56;;;;;;;3.65;2.00;;;;;;;12.29;41.41;97873.97;3542058;40;20393;-63
2021/05/04 07:14:23;;;;;;;2.88;2.08;;;;;;;12.19;43.21;97903.66;3533027;40;20058;-65
2021/05/04 07:16:50;;;;;;;5.20;2.20;;;;;;;12.01;43.96;97895.75;3542254;40;20035;-64
2021/05/04 07:19:17;;;;;;;1.92;1.83;;;;;;;11.98;44.86;97909.44;3542415;40;20399;-64
2021/05/04 07:21:44;;;;;;;3.60;1.90;;;;;;;11.79;46.38;97893.53;3541753;40;20482;-64
2021/05/04 07:24:12;;;;;;;2.47;1.88;;;;;;;11.45;47.76;97887.00;3543401;40;20107;-64
2021/05/04 07:26:39;;;;;;;3.80;2.10;;;;;;;11.37;49.36;97889.94;3543537;40;20046;-64
2021/05/04 07:29:10;;;;;;;3.58;2.17;;;;;;;11.37;50.00;97893.38;3542669;40;20046;-64
2021/05/04 07:31:37;;;;;;;3.35;2.22;;;;;;;11.41;49.97;97907.81;3542539;40;20109;-64
2021/05/04 07:34:04;;;;;;;3.55;2.60;;;;;;;11.31;50.45;97891.63;3542774;40;20031;-66
2021/05/04 07:36:31;;;;;;;2.50;2.25;;;;;;;11.21;50.63;97867.50;3542531;40;20043;-64
2021/05/04 07:38:59;;;;;;;5.60;2.17;;;;;;;11.20;51.28;97892.34;3542223;40;20042;-65
2021/05/04 07:41:27;;;;;;;6.85;2.40;;;;;;;11.18;51.27;97883.00;3542161;40;20415;-64
2021/05/04 07:43:54;;;;;;;3.92;2.35;;;;;;;11.25;51.71;97870.53;3542065;40;20030;-64
2021/05/04 07:46:21;;;;;;;2.13;1.95;;;;;;;10.97;51.60;97889.50;3544051;40;20059;-64
2021/05/04 07:48:48;;;;;;;5.13;2.30;;;;;;;10.86;52.39;97889.22;3542816;40;20043;-63
2021/05/04 07:51:30;;;;;;;3.17;2.25;;;;;;;10.95;53.02;97881.81;3542366;40;20054;-64
2021/05/04 07:53:57;;;;;;;3.55;1.90;;;;;;;11.02;53.32;97871.97;3543136;40;20182;-65
2021/05/04 07:56:27;;;;;;;3.78;2.30;;;;;;;11.09;52.61;97883.28;3543993;40;20042;-64
2021/05/04 07:58:54;;;;;;;2.58;2.38;;;;;;;10.99;53.36;97898.06;3543796;40;20396;-64
2021/05/04 08:01:21;;;;;;;5.13;2.35;;;;;;;11.02;53.72;97897.59;3544048;40;20053;-63
2021/05/04 08:03:48;;;;;;;3.60;2.53;;;;;;;11.04;53.73;97901.66;3543648;40;20043;-64
2021/05/04 08:06:15;;;;;;;2.97;2.30;;;;;;;10.80;54.70;97892.69;3543354;40;20049;-63
2021/05/04 08:08:41;;;;;;;3.90;1.98;;;;;;;10.69;55.69;97901.31;3534447;40;20073;-64
2021/05/04 08:11:08;;;;;;;3.45;2.38;;;;;;;10.70;55.49;97896.88;3543628;40;20130;-64
2021/05/04 08:13:37;;;;;;;3.20;2.30;;;;;;;10.70;55.59;97881.81;3542167;40;20340;-64
2021/05/04 08:16:07;;;;;;;2.88;2.38;;;;;;;10.69;56.14;97887.31;3541614;40;20047;-64
2021/05/04 08:18:35;;;;;;;3.83;2.42;;;;;;;10.87;56.45;97882.09;3581579;23;20489;-63
2021/05/04 08:21:02;;;;;;;3.65;2.38;;;;;;;10.85;56.49;97881.47;3549242;40;20038;-64
2021/05/04 08:23:29;;;;;;;4.45;2.55;;;;;;;10.88;56.79;97876.56;3549638;40;20054;-63
2021/05/04 08:25:56;;;;;;;2.92;2.60;;;;;;;10.96;56.71;97883.41;3550075;40;20327;-64
2021/05/04 08:28:23;;;;;;;2.70;2.50;;;;;;;10.77;58.09;97897.59;3550433;40;20308;-64
2021/05/04 08:30:51;;;;;;;2.38;2.17;;;;;;;10.68;58.13;97868.00;3549948;40;20396;-64
2021/05/04 08:33:18;;;;;;;2.50;2.30;;;;;;;10.68;57.92;97862.72;3549134;40;20042;-65
2021/05/04 08:35:45;;;;;;;4.95;2.67;;;;;;;10.69;58.53;97876.72;3540218;40;20050;-63
2021/05/04 08:38:13;;;;;;;3.55;2.90;;;;;;;10.62;58.88;97884.72;3548055;40;20057;-64
2021/05/04 08:40:40;;;;;;;3.50;2.72;;;;;;;10.54;58.60;97898.19;3549297;40;20057;-63
2021/05/04 08:43:08;;;;;;;3.42;2.80;;;;;;;10.26;59.97;97882.72;3540107;40;20132;-64
2021/05/04 08:45:35;;;;;;;3.60;3.30;;;;;;;10.30;60.59;97874.16;3549625;40;20332;-63
2021/05/04 08:48:04;;;;;;;4.05;2.60;;;;;;;10.26;60.89;97893.31;3539701;40;20049;-64
2021/05/04 08:50:35;;;;;;;4.15;2.92;;;;;;;10.43;61.44;97894.41;3549148;40;20061;-63
2021/05/04 08:53:02;;;;;;;3.20;2.90;;;;;;;10.24;62.00;97872.34;3549181;40;20046;-63
2021/05/04 08:55:29;;;;;;;5.00;3.10;;;;;;;10.42;62.19;97884.88;3549149;40;20073;-64
2021/05/04 08:58:02;;;;;;;5.53;3.28;;;;;;;10.44;61.41;97884.63;3549139;40;20051;-64
2021/05/04 09:00:49;;;;;;;5.35;3.15;;;;;;;10.42;61.85;97892.78;3549197;40;20058;-64
2021/05/04 09:03:19;;;;;;;4.50;2.83;;;;;;;10.46;62.38;97896.63;3552364;40;20058;-64
2021/05/04 09:05:52;;;;;;;5.57;3.33;;;;;;;10.50;62.27;97883.81;3552444;40;20050;-65
2021/05/04 09:08:34;;;;;;;5.43;2.75;;;;;;;10.73;61.99;97901.69;3550524;40;20064;-63
2021/05/04 09:11:27;;;;;;;4.65;2.90;;;;;;;10.55;61.62;97897.16;3548974;40;20050;-64
2021/05/04 09:14:00;;;;;;;3.65;3.30;;;;;;;10.46;62.49;97896.63;3549263;40;20042;-64
2021/05/04 09:16:32;;;;;;;3.45;3.00;;;;;;;10.50;62.92;97881.97;3548969;40;20395;-63
2021/05/04 09:19:20;;;;;;;6.95;3.40;;;;;;;10.56;63.01;97898.78;3548784;40;20050;-63
2021/05/04 09:21:46;;;;;;;5.32;3.22;;;;;;;10.50;62.89;97897.00;3549207;40;20030;-63
2021/05/04 09:24:28;;;;;;;4.10;3.35;;;;;;;10.40;63.47;97885.06;3549336;40;20053;-63
2021/05/04 09:27:00;;;;;;;4.63;3.20;;;;;;;10.30;64.24;97876.00;3548878;40;20411;-63
2021/05/04 09:29:29;;;;;;;5.00;3.00;;;;;;;10.30;64.13;97890.00;3551117;40;20043;-64
2021/05/04 09:32:09;;;;;;;3.67;3.30;;;;;;;10.35;65.07;97892.81;3550116;40;20058;-63
2021/05/04 09:34:43;;;;;;;3.28;2.88;;;;;;;10.40;64.85;97884.25;3549654;40;20105;-64
2021/05/04 09:37:25;;;;;;;4.78;3.53;;;;;;;10.51;64.47;97888.84;3549688;40;20054;-64
2021/05/04 09:39:53;;;;;;;4.78;3.92;;;;;;;10.72;64.74;97878.94;3550343;40;20057;-64
2021/05/04 09:42:20;;;;;;;7.18;3.50;;;;;;;10.62;65.08;97880.25;3550062;40;20050;-64
2021/05/04 09:44:48;;;;;;;3.50;3.10;;;;;;;10.65;65.44;97882.47;3550178;40;20046;-64
2021/05/04 09:47:21;;;;;;;7.78;3.65;;;;;;;10.76;65.26;97872.19;3549984;40;20057;-64
2021/05/04 09:49:49;;;;;;;15.02;9.75;;;;;;;10.79;65.32;97877.06;3549572;40;20082;-65
2021/05/04 09:52:35;;;;;;;3.25;2.85;;;;;;;10.60;64.87;97884.91;3549144;40;20054;-64
2021/05/04 09:55:08;;;;;;;3.53;3.22;;;;;;;10.66;65.44;97854.19;3548829;40;20516;-64
2021/05/04 09:57:40;;;;;;;3.22;2.92;;;;;;;10.52;65.34;97887.81;3548585;40;20050;-64
2021/05/04 10:00:09;;;;;;;3.03;2.83;;;;;;;10.48;65.05;97899.03;3548920;40;20042;-64
2021/05/04 10:02:37;;;;;;;4.55;2.80;;;;;;;10.68;65.05;97898.91;3548680;40;20061;-63
2021/05/04 10:05:08;;;;;;;2.90;2.70;;;;;;;10.89;65.92;97893.22;3548722;40;20050;-64
2021/05/04 10:07:36;;;;;;;2.60;2.40;;;;;;;11.15;65.44;97916.81;3547758;40;20050;-64
2021/05/04 10:10:05;;;;;;;2.70;2.50;;;;;;;11.19;63.06;97893.38;3548914;40;20060;-64
2021/05/04 10:12:33;;;;;;;2.97;2.55;;;;;;;11.14;63.04;97885.28;3548808;40;20054;-64
2021/05/04 10:15:03;;;;;;;3.15;2.70;;;;;;;11.25;62.88;97886.41;3549037;40;20372;-64
2021/05/04 10:17:34;;;;;;;4.90;2.80;;;;;;;11.43;62.15;97902.31;3548675;40;20300;-64
2021/05/04 10:20:03;;;;;;;3.15;2.83;;;;;;;11.27;61.30;97885.16;3539926;40;20323;-64
2021/05/04 10:22:30;;;;;;;3.20;2.75;;;;;;;11.57;61.16;97869.34;3550188;40;20057;-64
2021/05/04 10:24:59;;;;;;;3.40;3.10;;;;;;;11.82;60.82;97866.59;3550510;40;20046;-64
2021/05/04 10:27:26;;;;;;;3.28;2.30;;;;;;;11.75;60.58;97870.38;3550031;40;20061;-64
2021/05/04 10:29:54;;;;;;;2.85;2.50;;;;;;;11.64;60.51;97891.28;3551224;40;20394;-64
2021/05/04 10:32:52;;;;;;;3.25;2.88;;;;;;;11.58;60.04;97891.34;3550388;40;20073;-64
2021/05/04 10:35:36;;;;;;;2.75;2.38;;;;;;;11.32;59.97;97887.16;3553834;40;20066;-65
2021/05/04 10:38:06;;;;;;;2.88;2.55;;;;;;;11.35;60.13;97894.66;3552758;40;20044;-64
2021/05/04 10:40:34;;;;;;;3.22;2.42;;;;;;;11.33;60.41;97897.50;3552039;40;20416;-65
2021/05/04 10:43:38;;;;;;;;;;;;;;;11.16;60.62;97897.25;3553715;40;20292;-65
2021/05/04 10:46:10;;;;;;;2.15;1.95;;;;;;;11.07;60.58;97898.56;3552389;40;19941;-64
2021/05/04 10:48:42;;;;;;;2.47;2.28;;;;;;;11.18;60.35;97912.91;3552510;40;20133;-62
2021/05/04 10:51:12;;;;;;;3.10;2.40;;;;;;;11.27;60.36;97893.09;3543818;40;20058;-65
2021/05/04 10:54:02;;;;;;;2.63;2.42;;;;;;;11.24;60.15;97882.16;3552818;40;20050;-64
2021/05/04 10:56:33;;;;;;;3.47;2.55;;;;;;;10.90;60.51;97900.97;3543528;40;20331;-63
2021/05/04 10:59:00;;;;;;;4.80;2.10;;;;;;;10.74;60.67;97903.34;3552314;40;20034;-64
2021/05/04 11:01:27;;;;;;;3.95;2.28;;;;;;;10.73;61.32;97907.78;3552514;40;20463;-64
2021/05/04 11:03:55;;;;;;;2.28;2.05;;;;;;;10.66;61.18;97915.00;3552115;40;20409;-64
2021/05/04 11:06:45;;;;;;;2.35;2.15;;;;;;;10.61;61.18;97918.28;3552216;40;20058;-64
2021/05/04 11:09:15;;;;;;;2.55;2.30;;;;;;;10.82;61.22;97917.09;3542647;40;20324;-64
2021/05/04 11:11:46;;;;;;;3.25;2.25;;;;;;;11.01;61.10;97895.97;3552390;40;20109;-65
2021/05/04 11:14:39;;;;;;;3.60;2.10;;;;;;;11.06;60.68;97904.91;3552004;40;20101;-63
2021/05/04 11:17:14;;;;;;;2.42;2.22;;;;;;;11.25;60.58;97900.44;3542776;40;20380;-63
2021/05/04 11:19:43;;;;;;;2.63;2.15;;;;;;;11.27;59.87;97879.06;3552259;40;20334;-64
2021/05/04 11:22:13;;;;;;;4.88;3.45;;;;;;;11.23;59.97;97886.63;3551727;40;20046;-65
2021/05/04 11:24:47;;;;;;;4.95;2.78;;;;;;;11.33;59.97;97884.28;3552589;40;20054;-64
2021/05/04 11:27:31;;;;;;;3.65;1.70;;;;;;;11.65;59.23;97870.91;3552495;40;20049;-64
2021/05/04 11:30:03;;;;;;;3.55;2.00;;;;;;;11.93;58.74;97878.31;3552974;40;20046;-62
2021/05/04 11:32:45;;;;;;;2.53;2.08;;;;;;;11.97;58.93;97884.78;3550767;40;20092;-63
2021/05/04 11:35:14;;;;;;;1.90;1.80;;;;;;;11.96;58.58;97887.66;3551891;40;20053;-63
2021/05/04 11:37:49;;;;;;;2.28;2.08;;;;;;;11.89;58.59;97887.75;3551468;40;20407;-63
2021/05/04 11:40:19;;;;;;;4.05;2.30;;;;;;;11.92;58.34;97883.81;3551538;40;20058;-63
2021/05/04 11:42:48;;;;;;;2.33;2.10;;;;;;;12.06;58.90;97882.63;3552414;40;20087;-63